Time;durP1;ratioP1;P1;durP2;ratioP2;P2;SDS_P1;SDS_P2;PMS_P1;PMS_P2;Temp;Humidity;BMP_temperature;BMP_pressure;BME280_temperature;BME280_humidity;BME280_pressure;Samples;Min_cycle;Max_cycle;Signal;HPM_P1;HPM_P2
2024/03/03 00:01:33;;;;;;;1.70;1.20;;;;;;;-146.27;70.75;45640.00;5068778;28;20127;-71
2024/03/03 00:03:59;;;;;;;2.75;1.70;;;;;;;-146.27;70.68;45663.88;5068221;28;20488;-72
2024/03/03 00:06:24;;;;;;;1.63;1.30;;;;;;;-146.27;70.80;45632.03;5070294;28;20461;-71
2024/03/03 00:08:50;;;;;;;7.32;1.50;;;;;;;-146.27;71.01;45643.97;5069030;28;20032;-71
2024/03/03 00:11:15;;;;;;;2.70;1.27;;;;;;;-146.27;70.89;45618.09;5069387;28;20032;-71
2024/03/03 00:13:40;;;;;;;3.20;1.50;;;;;;;-146.27;70.80;45624.06;5068526;28;20099;-71
2024/03/03 00:16:06;;;;;;;1.65;1.30;;;;;;;-146.27;70.57;45632.03;5068166;28;20460;-71
2024/03/03 00:18:37;;;;;;;1.25;1.13;;;;;;;-146.27;70.82;45669.84;5068986;28;20465;-71
2024/03/03 00:21:03;;;;;;;1.55;1.45;;;;;;;-146.27;70.81;45612.13;5068292;28;20028;-73
2024/03/03 00:23:29;;;;;;;5.40;1.35;;;;;;;-146.27;70.69;45608.16;5069650;28;20104;-72
2024/03/03 00:25:54;;;;;;;2.20;1.40;;;;;;;-146.27;70.70;45643.97;5068759;28;20444;-72
2024/03/03 00:28:20;;;;;;;1.48;1.13;;;;;;;-146.27;70.72;45604.19;5065698;28;20074;-71
2024/03/03 00:30:45;;;;;;;1.63;1.20;;;;;;;-146.27;70.50;45616.13;5068628;28;20029;-70
2024/03/03 00:33:11;;;;;;;1.67;1.20;;;;;;;-146.27;70.68;45606.16;5064750;28;20028;-72
2024/03/03 00:35:36;;;;;;;1.45;1.27;;;;;;;-146.27;70.50;45590.25;5061297;28;20081;-72
2024/03/03 00:38:01;;;;;;;1.45;1.00;;;;;;;-146.27;70.79;45620.09;5063068;28;20472;-71
2024/03/03 00:40:27;;;;;;;5.32;1.58;;;;;;;-146.27;70.71;45616.13;5067719;28;20628;-71
2024/03/03 00:42:52;;;;;;;1.80;1.10;;;;;;;-146.27;70.73;45592.22;5067802;28;20396;-71
2024/03/03 00:45:18;;;;;;;3.03;1.50;;;;;;;-146.27;71.26;45602.19;5066204;28;20107;-71
2024/03/03 00:47:44;;;;;;;2.38;1.50;;;;;;;-146.27;71.17;45624.06;5067476;28;20028;-71
2024/03/03 00:50:10;;;;;;;1.80;1.20;;;;;;;-146.27;71.11;45590.25;5069004;28;20024;-71
2024/03/03 00:52:36;;;;;;;1.90;1.30;;;;;;;-146.27;71.05;45602.19;5067493;28;20032;-72
2024/03/03 00:55:01;;;;;;;1.25;1.10;;;;;;;-146.27;71.17;45616.13;5068148;28;20027;-69
2024/03/03 00:57:27;;;;;;;3.15;1.25;;;;;;;-146.27;71.51;45608.16;5066422;28;20020;-72
2024/03/03 00:59:53;;;;;;;2.40;1.30;;;;;;;-146.27;71.45;45594.22;5069253;28;20020;-73
2024/03/03 01:02:19;;;;;;;1.88;1.40;;;;;;;-146.27;71.26;45590.25;5068004;28;20024;-71
2024/03/03 01:04:44;;;;;;;2.45;1.40;;;;;;;-146.27;71.23;45568.34;5069150;28;20107;-71
2024/03/03 01:07:09;;;;;;;4.38;1.45;;;;;;;-146.27;71.46;45592.22;5068878;28;20032;-72
2024/03/03 01:09:35;;;;;;;1.88;1.20;;;;;;;-146.27;71.65;45620.09;5067493;28;20021;-72
2024/03/03 01:12:00;;;;;;;2.80;1.85;;;;;;;-146.27;71.61;45616.13;5068233;28;20423;-71
2024/03/03 01:14:26;;;;;;;2.38;1.30;;;;;;;-146.27;71.27;45598.19;5067222;28;20404;-71
2024/03/03 01:16:52;;;;;;;2.45;1.42;;;;;;;-146.27;71.39;45584.28;5066980;28;20028;-71
2024/03/03 01:19:18;;;;;;;2.83;1.55;;;;;;;-146.27;71.23;45608.16;5068310;28;20063;-71
2024/03/03 01:21:43;;;;;;;1.10;1.00;;;;;;;-146.27;71.24;45590.25;5069688;28;20555;-71
2024/03/03 01:24:08;;;;;;;2.28;1.30;;;;;;;-146.27;71.16;45588.25;5066815;28;20032;-72
2024/03/03 01:26:35;;;;;;;4.18;1.40;;;;;;;-146.27;71.08;45624.06;5067915;28;20452;-71
2024/03/03 01:29:00;;;;;;;2.30;1.40;;;;;;;-146.27;70.93;45606.16;5068555;28;20458;-71
2024/03/03 01:31:26;;;;;;;1.55;1.30;;;;;;;-146.27;71.06;45614.13;5066212;28;20024;-71
2024/03/03 01:33:51;;;;;;;2.08;1.42;;;;;;;-146.27;71.50;45634.03;5070758;28;20035;-71
2024/03/03 01:36:16;;;;;;;1.35;1.13;;;;;;;-146.27;71.44;45616.13;5070840;28;20028;-71
2024/03/03 01:38:42;;;;;;;1.85;1.35;;;;;;;-146.27;71.75;45616.13;5070972;28;20094;-72
2024/03/03 01:41:07;;;;;;;2.30;1.15;;;;;;;-146.27;71.54;45622.09;5073579;28;20028;-71
2024/03/03 01:43:32;;;;;;;4.13;1.40;;;;;;;-146.27;71.43;45606.16;5071823;28;20488;-70
2024/03/03 01:45:58;;;;;;;3.45;1.30;;;;;;;-146.27;71.53;45628.06;5071909;28;20058;-70
2024/03/03 01:48:24;;;;;;;2.00;1.42;;;;;;;-146.27;71.65;45636.03;5070634;28;20652;-70
2024/03/03 01:50:50;;;;;;;1.95;1.40;;;;;;;-146.27;71.69;45638.00;5072939;28;20068;-72
2024/03/03 01:53:17;;;;;;;2.00;1.30;;;;;;;-146.27;71.69;45616.13;5072439;28;20512;-72
2024/03/03 01:55:43;;;;;;;1.65;1.38;;;;;;;-146.27;71.96;45590.25;5065809;28;20546;-70
2024/03/03 01:58:11;;;;;;;5.88;1.60;;;;;;;-146.27;72.19;45628.06;5070779;28;20033;-71
2024/03/03 02:00:36;;;;;;;3.85;1.77;;;;;;;-146.27;72.44;45626.06;5070938;28;20032;-72
2024/03/03 02:03:05;;;;;;;2.00;1.55;;;;;;;-146.27;72.57;45614.13;5072271;28;20104;-72
2024/03/03 02:05:31;;;;;;;2.28;1.40;;;;;;;-146.27;72.44;45624.06;5069038;28;20115;-71
2024/03/03 02:07:56;;;;;;;2.58;1.40;;;;;;;-146.27;72.77;45604.19;5072036;28;20587;-71
2024/03/03 02:10:22;;;;;;;1.85;1.25;;;;;;;-146.27;72.79;45606.16;5071363;28;20032;-71
2024/03/03 02:12:48;;;;;;;1.48;1.30;;;;;;;-146.27;73.16;45630.06;5069811;28;20058;-71
2024/03/03 02:15:14;;;;;;;1.67;1.42;;;;;;;-146.27;73.26;45636.03;5065103;28;20021;-71
2024/03/03 02:17:39;;;;;;;2.22;1.80;;;;;;;-146.27;73.55;45616.13;5067153;28;20024;-71
2024/03/03 02:20:05;;;;;;;1.83;1.33;;;;;;;-146.27;73.41;45612.13;5074377;28;20033;-71
2024/03/03 02:22:30;;;;;;;2.50;1.33;;;;;;;-146.27;73.38;45604.19;5070395;28;20029;-71
2024/03/03 02:24:56;;;;;;;5.25;1.50;;;;;;;-146.27;73.52;45586.25;5061882;28;20111;-71
2024/03/03 02:27:23;;;;;;;2.22;1.45;;;;;;;-146.27;73.60;45626.06;5065986;28;20068;-71
2024/03/03 02:29:48;;;;;;;2.03;1.25;;;;;;;-146.27;73.66;45592.22;5070251;28;20025;-71
2024/03/03 02:32:14;;;;;;;2.78;1.75;;;;;;;-146.27;74.03;45582.28;5069114;28;20389;-72
2024/03/03 02:34:39;;;;;;;2.05;1.60;;;;;;;-146.27;74.13;45608.16;5069420;28;20029;-72
2024/03/03 02:37:05;;;;;;;2.45;1.65;;;;;;;-146.27;74.44;45586.25;5072315;28;20028;-71
2024/03/03 02:39:31;;;;;;;2.47;1.70;;;;;;;-146.27;74.45;45582.28;5070927;28;20036;-71
2024/03/03 02:41:56;;;;;;;2.28;1.65;;;;;;;-146.27;74.71;45554.41;5070842;28;20644;-71
2024/03/03 02:44:22;;;;;;;2.97;1.60;;;;;;;-146.27;74.86;45534.50;5069800;28;20024;-72
2024/03/03 02:46:48;;;;;;;2.42;1.65;;;;;;;-146.27;75.07;45530.53;5071246;28;20020;-72
2024/03/03 02:49:14;;;;;;;2.67;1.75;;;;;;;-146.27;75.21;45496.69;5070323;28;20043;-71
2024/03/03 02:51:40;;;;;;;1.90;1.70;;;;;;;-146.27;74.94;45500.69;5070973;28;20443;-71
2024/03/03 02:54:05;;;;;;;1.80;1.33;;;;;;;-146.27;74.65;45504.66;5071731;28;20028;-71
2024/03/03 02:56:31;;;;;;;1.27;1.10;;;;;;;-146.27;74.77;45484.75;5070932;28;20122;-71
2024/03/03 02:58:56;;;;;;;2.00;1.77;;;;;;;-146.27;74.52;45496.69;5068006;28;20036;-71
2024/03/03 03:01:21;;;;;;;1.80;1.48;;;;;;;-146.27;74.93;45470.81;5068644;28;20078;-70
2024/03/03 03:03:47;;;;;;;3.33;1.50;;;;;;;-146.27;74.79;45476.78;5067839;28;20037;-70
2024/03/03 03:06:12;;;;;;;3.55;1.58;;;;;;;-146.27;74.97;45488.75;5069943;28;20051;-73
2024/03/03 03:08:37;;;;;;;2.45;1.63;;;;;;;-146.27;75.07;45470.81;5071170;28;20039;-72
2024/03/03 03:11:05;;;;;;;3.83;1.85;;;;;;;-146.27;75.30;45460.88;5070810;28;20027;-70
2024/03/03 03:13:30;;;;;;;2.35;1.88;;;;;;;-146.27;75.54;45464.84;5070708;28;20126;-71
2024/03/03 03:15:56;;;;;;;2.40;1.70;;;;;;;-146.27;75.45;45448.94;5064149;28;20189;-71
2024/03/03 03:18:21;;;;;;;4.47;1.63;;;;;;;-146.27;75.61;45431.03;5069249;28;20041;-71
2024/03/03 03:20:46;;;;;;;2.13;1.88;;;;;;;-146.27;75.67;45456.91;5067923;28;20036;-71
2024/03/03 03:23:12;;;;;;;2.00;1.80;;;;;;;-146.27;75.73;45478.78;5071734;28;20021;-71
2024/03/03 03:25:37;;;;;;;2.58;1.73;;;;;;;-146.27;75.79;45456.91;5069483;28;20020;-69
2024/03/03 03:28:03;;;;;;;2.30;2.00;;;;;;;-146.27;75.92;45448.94;5071034;28;20060;-71
2024/03/03 03:30:28;;;;;;;2.75;1.90;;;;;;;-146.27;76.05;45460.88;5069835;28;20035;-71
2024/03/03 03:32:54;;;;;;;2.25;1.58;;;;;;;-146.27;76.13;45429.03;5070953;28;20047;-71
2024/03/03 03:35:21;;;;;;;3.38;2.00;;;;;;;-146.27;76.33;45448.94;5074593;28;20025;-71
2024/03/03 03:37:47;;;;;;;2.03;1.60;;;;;;;-146.27;76.27;45458.88;5069758;28;20043;-71
2024/03/03 03:40:13;;;;;;;3.15;1.92;;;;;;;-146.27;76.44;45413.09;5071461;28;20024;-71
2024/03/03 03:42:39;;;;;;;2.17;1.70;;;;;;;-146.27;76.50;45397.19;5068886;28;20077;-71
2024/03/03 03:45:05;;;;;;;2.33;1.50;;;;;;;-146.27;76.55;45409.13;5069163;28;20036;-71
2024/03/03 03:47:32;;;;;;;2.58;1.80;;;;;;;-146.27;76.39;45403.16;5070779;28;20043;-71
2024/03/03 03:49:58;;;;;;;2.08;1.67;;;;;;;-146.27;76.82;45385.25;5069702;28;20404;-72
2024/03/03 03:52:23;;;;;;;1.60;1.50;;;;;;;-146.27;76.95;45389.22;5074344;28;20028;-71
2024/03/03 03:54:48;;;;;;;2.33;1.60;;;;;;;-146.27;77.23;45421.06;5070081;28;20032;-71
2024/03/03 03:57:14;;;;;;;2.20;1.50;;;;;;;-146.27;77.29;45379.28;5069757;28;20020;-71
2024/03/03 03:59:40;;;;;;;2.58;1.90;;;;;;;-146.27;77.32;45345.44;5069443;28;20055;-71
2024/03/03 04:02:05;;;;;;;2.38;1.80;;;;;;;-146.27;77.50;45377.28;5069820;28;20020;-71
2024/03/03 04:04:34;;;;;;;3.03;1.95;;;;;;;-146.27;77.59;45357.38;5069318;28;20025;-72
2024/03/03 04:07:01;;;;;;;2.38;1.90;;;;;;;-146.27;77.53;45343.44;5068471;28;20024;-71
2024/03/03 04:09:27;;;;;;;3.22;1.85;;;;;;;-146.27;77.62;45345.44;5069546;28;20552;-71
2024/03/03 04:11:53;;;;;;;3.65;2.13;;;;;;;-146.27;77.56;45349.41;5069709;28;20054;-72
2024/03/03 04:14:18;;;;;;;2.72;1.92;;;;;;;-146.27;77.49;45355.41;5066047;28;20020;-72
2024/03/03 04:16:44;;;;;;;3.72;2.25;;;;;;;-146.27;77.55;45357.38;5066814;28;20024;-71
2024/03/03 04:19:09;;;;;;;4.95;2.20;;;;;;;-146.27;77.31;45349.41;5069469;28;20108;-71
2024/03/03 04:21:41;;;;;;;3.58;2.63;;;;;;;-146.27;77.33;45335.50;5069448;28;20480;-72
2024/03/03 04:24:06;;;;;;;3.97;2.50;;;;;;;-146.27;77.13;45361.38;5068466;28;20025;-71
2024/03/03 04:26:32;;;;;;;5.38;2.50;;;;;;;-146.27;77.07;45385.25;5069306;28;20114;-70
2024/03/03 04:28:58;;;;;;;4.97;2.70;;;;;;;-146.27;77.20;45373.31;5066814;28;20025;-70
2024/03/03 04:31:23;;;;;;;4.70;2.97;;;;;;;-146.27;77.50;45401.16;5069140;28;20025;-70
2024/03/03 04:33:49;;;;;;;3.00;2.40;;;;;;;-146.27;77.87;45389.22;5068466;28;20024;-71
2024/03/03 04:36:14;;;;;;;3.80;2.80;;;;;;;-146.27;77.81;45381.25;5069558;28;20032;-72
2024/03/03 04:38:40;;;;;;;4.03;2.63;;;;;;;-146.27;77.80;45401.16;5068687;28;20020;-72
2024/03/03 04:41:16;;;;;;;5.45;3.10;;;;;;;-146.27;77.97;45417.09;5068296;28;20071;-71
2024/03/03 04:43:42;;;;;;;5.28;2.97;;;;;;;-146.27;78.11;45415.09;5069290;28;20073;-71
2024/03/03 04:46:08;;;;;;;5.35;3.40;;;;;;;-146.27;78.34;45448.94;5067280;28;20036;-71
2024/03/03 04:48:35;;;;;;;4.97;2.90;;;;;;;-146.27;78.61;45419.09;5059480;28;20036;-71
2024/03/03 04:51:00;;;;;;;3.38;2.65;;;;;;;-146.27;78.97;45409.13;5066700;28;20389;-71
2024/03/03 04:53:25;;;;;;;4.07;2.97;;;;;;;-146.27;78.93;45379.28;5068277;28;20024;-71
2024/03/03 04:55:51;;;;;;;7.15;2.85;;;;;;;-146.27;78.82;45347.44;5068357;28;20035;-72
2024/03/03 04:58:17;;;;;;;5.72;3.25;;;;;;;-146.27;79.06;45373.31;5068331;28;20541;-72
2024/03/03 05:00:42;;;;;;;6.47;3.28;;;;;;;-146.27;78.79;45349.41;5072033;28;20056;-71
2024/03/03 05:03:09;;;;;;;5.10;3.20;;;;;;;-146.27;78.84;45373.31;5068935;28;20024;-71
2024/03/03 05:05:34;;;;;;;4.43;3.20;;;;;;;-146.27;78.59;45331.50;5067037;28;20040;-72
2024/03/03 05:08:00;;;;;;;4.97;3.58;;;;;;;-146.27;78.38;45381.25;5068118;28;20495;-71
2024/03/03 05:10:25;;;;;;;5.40;3.58;;;;;;;-146.27;78.08;45325.53;5068529;28;20024;-71
2024/03/03 05:12:51;;;;;;;6.03;3.70;;;;;;;-146.27;77.91;45335.50;5068006;28;20024;-71
2024/03/03 05:15:16;;;;;;;4.40;3.22;;;;;;;-146.27;77.50;45337.47;5067328;28;20031;-71
2024/03/03 05:17:41;;;;;;;6.60;3.60;;;;;;;-146.27;77.36;45349.41;5068631;28;20031;-73
2024/03/03 05:20:10;;;;;;;4.13;3.47;;;;;;;-146.27;77.19;45349.41;5069759;28;20495;-73
2024/03/03 05:22:38;;;;;;;4.03;3.40;;;;;;;-146.27;77.02;45337.47;5067370;28;20039;-71
2024/03/03 05:25:04;;;;;;;6.55;3.60;;;;;;;-146.27;76.84;45357.38;5068378;28;20021;-72
2024/03/03 05:27:31;;;;;;;6.32;3.60;;;;;;;-146.27;76.65;45331.50;5068170;28;20089;-71
2024/03/03 05:29:56;;;;;;;6.63;4.20;;;;;;;-146.27;76.66;45359.38;5068161;28;20033;-74
2024/03/03 05:32:22;;;;;;;4.65;3.58;;;;;;;-146.27;76.60;45349.41;5065180;28;20370;-73
2024/03/03 05:34:48;;;;;;;8.82;3.92;;;;;;;-146.27;76.66;45361.38;5066596;28;20017;-72
2024/03/03 05:37:14;;;;;;;6.07;3.55;;;;;;;-146.27;76.81;45373.31;5068123;28;20032;-73
2024/03/03 05:39:40;;;;;;;4.38;3.38;;;;;;;-146.27;77.22;45393.22;5067219;28;20016;-74
2024/03/03 05:42:06;;;;;;;10.60;4.20;;;;;;;-146.27;77.54;45361.38;5065145;28;20055;-73
2024/03/03 05:44:31;;;;;;;7.82;3.53;;;;;;;-146.27;78.04;45369.31;5064036;28;20054;-72
2024/03/03 05:46:57;;;;;;;5.70;3.50;;;;;;;-146.27;78.07;45361.38;5065712;28;20036;-72
2024/03/03 05:49:23;;;;;;;4.85;3.25;;;;;;;-146.27;78.79;45327.53;5069252;28;20052;-73
2024/03/03 05:51:48;;;;;;;10.95;4.18;;;;;;;-146.27;78.54;45373.31;5073330;28;20028;-72
2024/03/03 05:54:13;;;;;;;6.22;3.50;;;;;;;-146.27;78.57;45375.28;5068641;28;20496;-72
2024/03/03 05:56:39;;;;;;;5.70;3.75;;;;;;;-146.27;78.65;45361.38;5068628;28;20020;-72
2024/03/03 05:59:04;;;;;;;7.20;3.78;;;;;;;-146.27;78.64;45353.41;5068551;28;20023;-72
2024/03/03 06:01:29;;;;;;;8.95;4.47;;;;;;;-146.27;78.74;45353.41;5068384;28;20026;-73
2024/03/03 06:03:55;;;;;;;7.80;4.60;;;;;;;-146.27;78.97;45339.47;5067991;28;20024;-73
2024/03/03 06:06:20;;;;;;;5.30;3.58;;;;;;;-146.27;78.88;45339.47;5067222;28;20120;-73
2024/03/03 06:08:45;;;;;;;7.30;3.88;;;;;;;-146.27;79.39;45335.50;5067679;28;20107;-73
2024/03/03 06:11:11;;;;;;;5.88;3.90;;;;;;;-146.27;79.25;45321.56;5067312;28;20040;-72
2024/03/03 06:13:36;;;;;;;7.53;3.97;;;;;;;-146.27;79.60;45305.63;5061972;28;20451;-72
2024/03/03 06:16:02;;;;;;;6.32;3.72;;;;;;;-146.27;79.63;45319.56;5067340;28;20124;-73
2024/03/03 06:18:28;;;;;;;7.00;3.95;;;;;;;-146.27;79.82;45353.41;5062369;28;20068;-72
2024/03/03 06:20:54;;;;;;;6.63;4.32;;;;;;;-146.27;79.69;45325.53;5070248;28;20028;-73
2024/03/03 06:23:20;;;;;;;5.22;3.92;;;;;;;-146.27;79.78;45309.63;5071977;28;20036;-72
2024/03/03 06:25:46;;;;;;;5.55;3.72;;;;;;;-146.27;79.63;45333.50;5072269;28;20059;-72
2024/03/03 06:28:11;;;;;;;7.53;3.80;;;;;;;-146.27;79.80;45317.56;5058362;28;20131;-72
2024/03/03 06:30:37;;;;;;;7.22;3.80;;;;;;;-146.27;80.15;45309.63;5071529;28;20038;-72
2024/03/03 06:33:02;;;;;;;6.10;4.13;;;;;;;-146.27;79.89;45317.56;5067737;28;20026;-72
2024/03/03 06:35:28;;;;;;;5.50;3.97;;;;;;;-146.27;79.86;45341.47;5060922;28;20496;-72
2024/03/03 06:37:53;;;;;;;6.93;4.00;;;;;;;-146.27;80.04;45321.56;5070859;28;20044;-72
2024/03/03 06:40:18;;;;;;;5.18;3.83;;;;;;;-146.27;79.92;45323.56;5062313;28;20116;-71
2024/03/03 06:42:44;;;;;;;7.03;3.90;;;;;;;-146.27;79.90;45351.41;5070227;28;20020;-72
2024/03/03 06:45:10;;;;;;;7.15;4.25;;;;;;;-146.27;79.75;45351.41;5070877;28;20032;-71
2024/03/03 06:47:36;;;;;;;7.07;4.18;;;;;;;-146.27;80.03;45341.47;5070481;28;20028;-71
2024/03/03 06:50:02;;;;;;;9.10;4.70;;;;;;;-146.27;79.77;45369.31;5063871;28;20086;-71
2024/03/03 06:52:30;;;;;;;5.75;3.95;;;;;;;-146.27;79.80;45361.38;5071743;28;20120;-70
2024/03/03 06:54:56;;;;;;;6.10;4.05;;;;;;;-146.27;79.82;45359.38;5071916;28;20044;-71
2024/03/03 06:57:21;;;;;;;5.90;3.95;;;;;;;-146.27;79.69;45369.31;5069827;28;20028;-71
2024/03/03 06:59:46;;;;;;;5.88;4.22;;;;;;;-146.27;79.68;45355.41;5071943;28;20060;-71
2024/03/03 07:02:12;;;;;;;5.45;3.97;;;;;;;-146.27;79.75;45353.41;5069855;28;20040;-71
2024/03/03 07:04:37;;;;;;;7.18;4.47;;;;;;;-146.27;79.88;45371.31;5067285;28;20029;-73
2024/03/03 07:07:02;;;;;;;7.75;4.28;;;;;;;-146.27;80.21;45361.38;5069525;28;20024;-72
2024/03/03 07:09:28;;;;;;;8.32;4.50;;;;;;;-146.27;79.92;45377.28;5069098;28;20082;-72
2024/03/03 07:11:56;;;;;;;5.40;4.05;;;;;;;-146.27;79.61;45399.19;5070659;28;20077;-70
2024/03/03 07:14:23;;;;;;;6.13;4.47;;;;;;;-146.27;79.58;45377.28;5064777;28;20024;-70
2024/03/03 07:16:49;;;;;;;5.53;3.92;;;;;;;-146.27;79.68;45383.25;5070023;28;20032;-72
2024/03/03 07:19:14;;;;;;;6.38;4.13;;;;;;;-146.27;79.75;45395.19;5069196;28;20024;-72
2024/03/03 07:21:40;;;;;;;7.80;4.60;;;;;;;-146.27;79.66;45393.22;5070174;28;20032;-71
2024/03/03 07:24:05;;;;;;;6.45;4.35;;;;;;;-146.27;80.01;45409.13;5071488;28;20405;-72
2024/03/03 07:26:31;;;;;;;6.00;4.50;;;;;;;-146.27;79.99;45417.09;5075528;28;20047;-72
2024/03/03 07:28:57;;;;;;;7.18;4.75;;;;;;;-146.27;79.90;45409.13;5070479;28;20098;-70
2024/03/03 07:31:22;;;;;;;7.93;4.72;;;;;;;-146.27;79.67;45415.09;5074999;28;20043;-71
2024/03/03 07:33:48;;;;;;;7.43;4.78;;;;;;;-146.27;79.47;45448.94;5080784;28;20126;-72
2024/03/03 07:36:13;;;;;;;6.88;4.60;;;;;;;-146.27;79.73;45456.91;5069137;28;20028;-72
2024/03/03 07:38:38;;;;;;;6.30;5.00;;;;;;;-146.27;79.81;45456.91;5083973;28;20097;-71
2024/03/03 07:41:04;;;;;;;9.20;4.82;;;;;;;-146.27;79.87;45488.75;5063463;28;20024;-71
2024/03/03 07:43:30;;;;;;;7.60;4.57;;;;;;;-146.27;79.86;45488.75;5074173;28;20040;-72
2024/03/03 07:45:55;;;;;;;7.15;4.65;;;;;;;-146.27;79.74;45500.69;5074448;28;20381;-71
2024/03/03 07:48:21;;;;;;;9.18;5.00;;;;;;;-146.27;79.66;45526.56;5077713;28;20032;-71
2024/03/03 07:50:47;;;;;;;6.10;4.97;;;;;;;-146.27;80.02;45530.53;5065577;28;20468;-74
2024/03/03 07:53:12;;;;;;;6.60;4.57;;;;;;;-146.27;80.48;45534.50;5069500;28;20433;-72
2024/03/03 07:55:37;;;;;;;9.30;5.40;;;;;;;-146.27;80.42;45526.56;5073130;28;20033;-72
2024/03/03 07:58:03;;;;;;;8.57;5.05;;;;;;;-146.27;80.42;45532.53;5083777;28;20064;-72
2024/03/03 08:00:33;;;;;;;10.85;4.85;;;;;;;-146.27;80.31;45540.50;5070846;28;20078;-73
2024/03/03 08:03:04;;;;;;;8.18;4.80;;;;;;;-146.27;80.20;45570.34;5071099;28;20473;-72
2024/03/03 08:05:32;;;;;;;7.20;4.97;;;;;;;-146.27;79.78;45544.47;5061256;28;20028;-73
2024/03/03 08:07:58;;;;;;;7.97;4.97;;;;;;;-146.27;79.40;45576.31;5069666;28;20029;-72
2024/03/03 08:10:23;;;;;;;7.75;4.90;;;;;;;-146.27;79.01;45578.31;5065653;28;20023;-73
2024/03/03 08:12:49;;;;;;;8.50;5.10;;;;;;;-146.27;78.69;45568.34;5069930;28;20103;-72
2024/03/03 08:15:14;;;;;;;14.43;5.70;;;;;;;-146.27;78.54;45578.31;5069476;28;20023;-72
2024/03/03 08:17:40;;;;;;;6.47;4.90;;;;;;;-146.27;78.26;45596.22;5068256;28;20089;-72
2024/03/03 08:20:05;;;;;;;8.55;5.30;;;;;;;-146.27;77.95;45596.22;5066382;28;20031;-73
2024/03/03 08:22:31;;;;;;;7.55;5.65;;;;;;;-146.27;77.78;45554.41;5081235;28;20028;-74
2024/03/03 08:24:56;;;;;;;8.65;5.70;;;;;;;-146.27;77.32;45552.44;5082379;28;20020;-72
2024/03/03 08:27:21;;;;;;;9.25;6.00;;;;;;;-146.27;76.86;45582.28;5070858;28;20051;-73
2024/03/03 08:29:47;;;;;;;12.60;6.00;;;;;;;-146.27;77.16;45588.25;5066662;28;20024;-73
2024/03/03 08:32:12;;;;;;;8.43;5.90;;;;;;;-146.27;77.04;45572.34;5068118;28;20732;-73
2024/03/03 08:34:37;;;;;;;11.93;6.05;;;;;;;-146.27;77.42;45544.47;5069187;28;20031;-73
2024/03/03 08:37:03;;;;;;;7.43;5.55;;;;;;;-146.27;77.11;45524.56;5068947;28;20020;-73
2024/03/03 08:39:28;;;;;;;9.02;5.70;;;;;;;-146.27;77.12;45532.53;5069109;28;20031;-73
2024/03/03 08:41:54;;;;;;;10.00;6.22;;;;;;;-146.27;76.95;45530.53;5068261;28;20484;-72
2024/03/03 08:44:19;;;;;;;9.60;5.93;;;;;;;-146.27;76.99;45528.53;5068472;28;20025;-73
2024/03/03 08:46:45;;;;;;;14.10;5.63;;;;;;;-146.27;76.77;45536.50;5068087;28;20410;-74
2024/03/03 08:49:10;;;;;;;7.90;5.97;;;;;;;-146.27;76.32;45528.53;5068385;28;20197;-73
2024/03/03 08:51:38;;;;;;;10.13;6.05;;;;;;;-146.27;76.63;45516.59;5069513;28;20028;-73
2024/03/03 08:54:04;;;;;;;8.88;5.95;;;;;;;-146.27;76.61;45512.63;5067393;28;20029;-73
2024/03/03 08:56:30;;;;;;;9.85;6.00;;;;;;;-146.27;76.08;45482.78;5063077;28;20024;-73
2024/03/03 08:58:55;;;;;;;10.55;6.78;;;;;;;-146.27;75.04;45488.75;5068960;28;20438;-71
2024/03/03 09:01:20;;;;;;;9.02;5.70;;;;;;;-146.27;75.15;45440.97;5067251;28;20025;-71
2024/03/03 09:03:46;;;;;;;10.75;6.10;;;;;;;-146.27;73.91;45437.00;5065625;28;20155;-72
2024/03/03 09:06:11;;;;;;;9.23;5.90;;;;;;;-146.27;72.98;45431.03;5101151;28;20356;-72
2024/03/03 09:08:37;;;;;;;8.75;5.97;;;;;;;-146.27;72.76;45437.00;5069267;28;20028;-72
2024/03/03 09:11:06;;;;;;;7.53;5.43;;;;;;;-146.27;72.49;45425.06;5068861;28;20060;-71
2024/03/03 09:13:33;;;;;;;9.30;5.78;;;;;;;-146.27;72.40;45429.03;5067086;28;20055;-71
2024/03/03 09:15:59;;;;;;;8.75;6.20;;;;;;;-146.27;72.00;45462.88;5063750;28;20027;-71
2024/03/03 09:18:24;;;;;;;9.27;5.95;;;;;;;-146.27;71.59;45496.69;5052196;28;20464;-71
2024/03/03 09:20:50;;;;;;;8.23;5.72;;;;;;;-146.27;71.61;45508.63;5069593;28;20116;-72
2024/03/03 09:23:15;;;;;;;8.70;5.90;;;;;;;-146.27;71.91;45488.75;5082840;28;20086;-71
2024/03/03 09:25:41;;;;;;;12.40;6.18;;;;;;;-146.27;71.89;45520.59;5069481;28;20032;-72
2024/03/03 09:28:06;;;;;;;9.93;5.63;;;;;;;-146.27;71.94;45448.94;5069757;28;20079;-71
2024/03/03 09:30:31;;;;;;;8.43;5.78;;;;;;;-146.27;71.74;45452.91;5069683;28;20058;-71
2024/03/03 09:32:57;;;;;;;9.48;5.60;;;;;;;-146.27;72.13;45450.91;5069304;28;20029;-71
2024/03/03 09:35:22;;;;;;;11.25;5.68;;;;;;;-146.27;72.16;45480.78;5079319;28;20405;-71
2024/03/03 09:37:49;;;;;;;7.18;5.20;;;;;;;-146.27;72.02;45437.00;5072662;28;20025;-71
2024/03/03 09:40:15;;;;;;;10.25;5.90;;;;;;;-146.27;72.02;45452.91;5066737;28;20476;-71
2024/03/03 09:42:45;;;;;;;8.55;5.72;;;;;;;-146.27;72.61;45419.09;5071618;28;20111;-72
2024/03/03 09:45:13;;;;;;;9.82;6.57;;;;;;;-146.27;72.39;45476.78;5067334;28;20397;-71
2024/03/03 09:47:39;;;;;;;10.65;6.47;;;;;;;-146.27;72.92;45345.44;5067934;28;20032;-71
2024/03/03 09:50:13;;;;;;;8.57;5.60;;;;;;;-146.27;70.22;45353.41;5081919;28;20476;-73
2024/03/03 09:52:42;;;;;;;8.85;5.80;;;;;;;-146.27;69.45;45345.44;5068007;28;20036;-70
2024/03/03 09:55:10;;;;;;;8.68;5.38;;;;;;;-146.27;68.73;45389.22;5065785;28;20016;-71
2024/03/03 09:57:37;;;;;;;10.43;6.07;;;;;;;-146.27;70.11;45387.25;5068661;28;20101;-72
2024/03/03 10:00:03;;;;;;;12.38;5.47;;;;;;;-146.27;70.74;45323.56;5071103;28;20028;-71
2024/03/03 10:02:32;;;;;;;8.07;5.60;;;;;;;-146.27;70.91;45317.56;5072277;28;20025;-71
2024/03/03 10:04:57;;;;;;;12.35;5.97;;;;;;;-146.27;70.09;45397.19;5071831;28;20039;-72
2024/03/03 10:07:24;;;;;;;8.77;5.22;;;;;;;-146.27;69.71;45341.47;5072213;28;20435;-72
2024/03/03 10:10:08;;;;;;;8.43;5.90;;;;;;;-146.27;69.29;45381.25;5070597;28;20040;-74
2024/03/03 10:12:34;;;;;;;12.25;5.32;;;;;;;-146.27;69.90;45387.25;5050090;28;20558;-74
2024/03/03 10:15:01;;;;;;;9.38;6.57;;;;;;;-146.27;69.72;45409.13;5065653;28;20021;-74
2024/03/03 10:17:27;;;;;;;9.70;5.95;;;;;;;-146.27;70.25;45433.00;5067239;28;20028;-75
2024/03/03 10:19:59;;;;;;;8.98;5.45;;;;;;;-146.27;70.29;45389.22;5062980;28;20104;-75
2024/03/03 10:22:24;;;;;;;10.85;6.60;;;;;;;-146.27;70.23;45387.25;5069399;28;20365;-74
2024/03/03 10:24:50;;;;;;;9.82;6.07;;;;;;;-146.27;70.84;45387.25;5071376;28;20278;-74
2024/03/03 10:27:16;;;;;;;8.65;5.45;;;;;;;-146.27;71.35;45401.16;5071920;28;20512;-74
2024/03/03 10:29:45;;;;;;;7.93;5.82;;;;;;;-146.27;71.66;45357.38;5071491;28;20396;-74
2024/03/03 10:32:11;;;;;;;10.95;6.30;;;;;;;-146.27;71.61;45357.38;5071425;28;20488;-74
2024/03/03 10:34:39;;;;;;;9.85;6.20;;;;;;;-146.27;71.89;45361.38;5070898;28;20082;-74
2024/03/03 10:37:05;;;;;;;8.65;5.68;;;;;;;-146.27;72.19;45389.22;5071330;28;20074;-74
2024/03/03 10:39:39;;;;;;;9.80;5.82;;;;;;;-146.27;72.33;45363.34;5071408;28;20028;-75
2024/03/03 10:42:11;;;;;;;7.20;4.85;;;;;;;-146.27;72.27;45387.25;5072028;28;20133;-75
2024/03/03 10:44:37;;;;;;;10.30;6.05;;;;;;;-146.27;72.33;45429.03;5071439;28;20039;-75
2024/03/03 10:47:07;;;;;;;10.40;6.22;;;;;;;-146.27;72.15;45389.22;5072184;28;20384;-75
2024/03/03 10:49:32;;;;;;;7.57;5.13;;;;;;;-146.27;71.87;45301.66;5071385;28;20431;-74
2024/03/03 10:51:59;;;;;;;7.35;4.88;;;;;;;-146.27;71.45;45305.63;5071101;28;20082;-75
2024/03/03 10:54:24;;;;;;;8.57;5.15;;;;;;;-146.27;71.67;45283.75;5070829;28;20028;-74
2024/03/03 10:56:51;;;;;;;7.68;4.85;;;;;;;-146.27;70.87;45285.75;5072516;28;20032;-74
2024/03/03 10:59:18;;;;;;;11.60;5.15;;;;;;;-146.27;70.40;45297.69;5090416;28;20515;-75
2024/03/03 11:01:44;;;;;;;7.68;5.00;;;;;;;-146.27;70.16;45273.78;5070367;28;20378;-73
2024/03/03 11:04:11;;;;;;;7.88;5.00;;;;;;;-146.27;70.04;45245.94;5068436;28;20028;-74
2024/03/03 11:06:42;;;;;;;6.03;4.22;;;;;;;-146.27;69.68;45224.03;5071120;28;20024;-74
2024/03/03 11:09:10;;;;;;;7.55;4.63;;;;;;;-146.27;69.93;45228.03;5075820;28;20532;-74
2024/03/03 11:11:38;;;;;;;6.53;4.72;;;;;;;-146.27;68.70;45257.88;5070954;28;20020;-74